createdAt,value
2023-03-17T00:02:39.277Z,1.30
2023-03-17T00:07:40.939Z,1.30
2023-03-17T00:12:42.374Z,1.30
2023-03-17T00:17:43.795Z,1.30
2023-03-17T00:22:45.280Z,1.20
2023-03-17T00:27:46.730Z,1.10
2023-03-17T00:32:48.287Z,1.00
2023-03-17T00:37:49.734Z,1.00
2023-03-17T00:42:51.200Z,0.90
2023-03-17T00:47:52.811Z,0.80
2023-03-17T00:52:54.270Z,0.80
2023-03-17T00:57:55.792Z,0.70
2023-03-17T01:02:57.297Z,0.60
2023-03-17T01:07:58.767Z,0.50
2023-03-17T01:13:00.254Z,0.50
2023-03-17T01:18:01.741Z,0.50
2023-03-17T01:23:03.167Z,0.50
2023-03-17T01:28:04.632Z,0.60
2023-03-17T01:33:06.205Z,0.60
2023-03-17T01:38:07.806Z,0.60
2023-03-17T01:43:09.266Z,0.60
2023-03-17T01:48:10.702Z,0.60
2023-03-17T01:53:12.121Z,0.60
2023-03-17T01:58:13.578Z,0.60
2023-03-17T02:03:15.084Z,0.50
2023-03-17T02:08:16.567Z,0.40
2023-03-17T02:13:18.120Z,0.40
2023-03-17T02:18:19.607Z,0.30
2023-03-17T02:23:21.128Z,0.20
2023-03-17T02:28:22.598Z,0.10
2023-03-17T02:33:24.104Z,0.10
2023-03-17T02:38:25.602Z,0.10
2023-03-17T02:43:27.074Z,0.10
2023-03-17T02:48:28.741Z,0.10
2023-03-17T02:53:30.273Z,0.10
2023-03-17T02:58:31.792Z,0.10
2023-03-17T03:03:33.277Z,0.00
2023-03-17T03:08:34.791Z,0.00
2023-03-17T03:13:36.258Z,0.00
2023-03-17T03:18:37.713Z,-0.10
2023-03-17T03:23:39.257Z,-0.10
2023-03-17T03:28:40.931Z,-0.10
2023-03-17T03:33:42.435Z,-0.10
2023-03-17T03:38:43.894Z,-0.10
2023-03-17T03:43:45.365Z,-0.10
2023-03-17T03:48:46.850Z,-0.10
2023-03-17T03:53:48.372Z,-0.10
2023-03-17T03:58:50.023Z,-0.10
2023-03-17T04:03:51.558Z,-0.10
2023-03-17T04:08:53.042Z,-0.10
2023-03-17T04:13:54.503Z,-0.20
2023-03-17T04:18:55.984Z,-0.20
2023-03-17T04:23:57.633Z,-0.30
2023-03-17T04:28:59.141Z,-0.30
2023-03-17T04:34:00.709Z,-0.40
2023-03-17T04:39:02.132Z,-0.30
2023-03-17T04:44:03.610Z,-0.40
2023-03-17T04:49:05.076Z,-0.40
2023-03-17T04:54:06.619Z,-0.40
2023-03-17T04:59:08.190Z,-0.40
2023-03-17T05:04:11.198Z,-0.40
2023-03-17T05:09:14.198Z,-0.40
2023-03-17T05:14:15.658Z,-0.40
2023-03-17T05:19:17.459Z,-0.40
2023-03-17T05:24:18.948Z,-0.30
2023-03-17T05:29:20.431Z,-0.20
2023-03-17T05:34:21.926Z,-0.10
2023-03-17T05:39:23.532Z,0.70
2023-03-17T05:44:25.194Z,1.00
2023-03-17T05:49:26.648Z,1.30
2023-03-17T05:54:29.240Z,2.10
2023-03-17T05:59:30.833Z,2.80
2023-03-17T06:04:32.482Z,3.10
2023-03-17T06:09:33.956Z,3.40
2023-03-17T06:14:35.467Z,3.60
2023-03-17T06:19:37.106Z,4.00
2023-03-17T06:24:38.636Z,4.50
2023-03-17T06:29:40.137Z,4.80
2023-03-17T06:34:41.770Z,5.00
2023-03-17T06:39:43.236Z,5.00
2023-03-17T06:44:44.743Z,5.10
2023-03-17T06:49:46.230Z,5.10
2023-03-17T06:54:47.863Z,5.40
2023-03-17T06:59:49.303Z,5.60
2023-03-17T07:04:50.884Z,5.90
2023-03-17T07:09:52.476Z,6.10
2023-03-17T07:14:54.017Z,6.00
2023-03-17T07:19:55.480Z,6.00
2023-03-17T07:24:57.116Z,6.00
2023-03-17T07:29:58.626Z,5.80
2023-03-17T07:35:00.277Z,5.80
2023-03-17T07:40:01.821Z,5.90
2023-03-17T07:45:03.390Z,6.00
2023-03-17T07:50:04.891Z,6.10
2023-03-17T07:55:06.400Z,6.30
2023-03-17T08:00:07.983Z,6.30
2023-03-17T08:05:10.358Z,6.40
2023-03-17T08:10:12.000Z,6.60
2023-03-17T08:15:13.462Z,6.80
2023-03-17T08:20:14.937Z,6.90
2023-03-17T08:25:16.484Z,7.00
2023-03-17T08:30:18.106Z,7.50
2023-03-17T08:35:19.652Z,7.80
2023-03-17T08:40:21.319Z,8.00
2023-03-17T08:45:22.756Z,7.90
2023-03-17T08:50:24.434Z,7.90
2023-03-17T08:55:26.114Z,8.00
2023-03-17T09:00:27.752Z,8.20
2023-03-17T09:05:29.535Z,8.30
2023-03-17T09:10:31.257Z,8.50
2023-03-17T09:15:33.408Z,8.60
2023-03-17T09:20:34.983Z,8.90
2023-03-17T09:25:36.651Z,9.10
2023-03-17T09:30:38.177Z,9.40
2023-03-17T09:35:39.744Z,9.50
2023-03-17T09:40:41.272Z,9.80
2023-03-17T09:45:43.757Z,10.10
2023-03-17T09:50:45.364Z,10.30
2023-03-17T09:55:46.843Z,10.60
2023-03-17T10:00:48.276Z,10.60
2023-03-17T10:05:49.742Z,10.70
2023-03-17T10:10:51.246Z,10.90
2023-03-17T10:15:52.808Z,10.80
2023-03-17T10:20:54.347Z,10.70
2023-03-17T10:25:55.803Z,10.60
2023-03-17T10:30:57.269Z,10.80
2023-03-17T10:35:58.779Z,11.00
2023-03-17T10:41:00.292Z,10.90
2023-03-17T10:46:01.742Z,10.90
2023-03-17T10:51:03.267Z,11.00
2023-03-17T10:56:04.755Z,11.20
2023-03-17T11:01:06.272Z,11.30
2023-03-17T11:06:07.838Z,11.40
2023-03-17T11:11:09.305Z,11.50
2023-03-17T11:16:10.839Z,11.40
2023-03-17T11:21:12.309Z,11.40
2023-03-17T11:26:13.739Z,11.50
2023-03-17T11:31:15.320Z,11.40
2023-03-17T11:36:16.922Z,11.40
2023-03-17T11:41:18.387Z,11.30
2023-03-17T11:46:19.901Z,11.40
2023-03-17T11:51:21.348Z,11.60
2023-03-17T11:56:22.777Z,11.70
2023-03-17T12:01:24.219Z,11.70
2023-03-17T12:06:25.686Z,11.60
2023-03-17T12:11:27.143Z,11.80
2023-03-17T12:16:28.578Z,11.80
2023-03-17T12:21:30.081Z,11.90
2023-03-17T12:26:31.536Z,12.10
2023-03-17T12:31:33.119Z,12.10
2023-03-17T12:36:34.595Z,12.00
2023-03-17T12:41:36.049Z,12.00
2023-03-17T12:46:37.607Z,12.10
2023-03-17T12:51:39.160Z,12.30
2023-03-17T12:56:40.599Z,12.40
2023-03-17T13:01:42.048Z,12.40
2023-03-17T13:06:43.559Z,12.60
2023-03-17T13:11:45.039Z,12.60
2023-03-17T13:16:46.475Z,12.50
2023-03-17T13:21:47.935Z,12.40
2023-03-17T13:26:49.391Z,12.40
2023-03-17T13:31:50.883Z,12.40
2023-03-17T13:36:52.349Z,12.40
2023-03-17T13:41:53.797Z,12.40
2023-03-17T13:46:55.320Z,12.40
2023-03-17T13:52:00.456Z,12.40
2023-03-17T13:57:02.117Z,12.30
2023-03-17T14:02:03.608Z,12.30
2023-03-17T14:07:05.095Z,12.20
2023-03-17T14:12:06.570Z,12.10
2023-03-17T14:17:08.025Z,12.20
2023-03-17T14:22:09.453Z,12.20
2023-03-17T14:27:10.919Z,12.20
2023-03-17T14:32:12.365Z,12.30
2023-03-17T14:37:13.836Z,12.30
2023-03-17T14:42:15.271Z,12.40
2023-03-17T14:47:16.736Z,12.40
2023-03-17T14:52:18.194Z,12.40
2023-03-17T14:57:19.621Z,12.40
2023-03-17T15:02:21.070Z,12.10
2023-03-17T15:07:22.789Z,12.10
2023-03-17T15:12:24.268Z,12.00
2023-03-17T15:17:25.787Z,11.90
2023-03-17T15:22:27.465Z,11.80
2023-03-17T15:27:28.989Z,11.70
2023-03-17T15:32:30.505Z,11.70
2023-03-17T15:37:32.204Z,11.60
2023-03-17T15:42:33.740Z,11.50
2023-03-17T15:47:35.223Z,11.50
2023-03-17T15:52:36.654Z,11.40
2023-03-17T15:57:38.158Z,11.30
2023-03-17T16:02:39.617Z,11.30
2023-03-17T16:07:41.284Z,11.20
2023-03-17T16:12:42.786Z,11.10
2023-03-17T16:17:44.426Z,11.00
2023-03-17T16:22:45.997Z,10.90
2023-03-17T16:27:47.521Z,10.80
2023-03-17T16:32:49.212Z,10.70
2023-03-17T16:37:50.726Z,10.60
2023-03-17T16:42:52.158Z,10.50
2023-03-17T16:47:53.671Z,10.40
2023-03-17T16:52:55.117Z,10.30
2023-03-17T16:57:56.572Z,10.20
2023-03-17T17:02:58.068Z,10.10
2023-03-17T17:07:59.553Z,9.90
2023-03-17T17:13:01.073Z,9.80
2023-03-17T17:18:02.506Z,9.70
2023-03-17T17:23:03.987Z,9.60
2023-03-17T17:28:05.484Z,9.40
2023-03-17T17:33:07.054Z,9.30
2023-03-17T17:38:08.555Z,9.20
2023-03-17T17:43:10.077Z,9.10
2023-03-17T17:48:11.564Z,8.90
2023-03-17T17:53:13.019Z,8.80
2023-03-17T17:58:14.449Z,8.70
2023-03-17T18:03:15.893Z,8.50
2023-03-17T18:08:17.342Z,8.50
2023-03-17T18:13:18.828Z,8.40
2023-03-17T18:18:20.283Z,8.30
2023-03-17T18:23:21.703Z,8.20
2023-03-17T18:28:23.163Z,8.10
2023-03-17T18:33:24.631Z,8.00
2023-03-17T18:38:26.087Z,8.00
2023-03-17T18:43:32.161Z,7.90
2023-03-17T18:48:36.682Z,7.80
2023-03-17T18:53:38.148Z,7.70
2023-03-17T18:58:39.695Z,7.60
2023-03-17T19:03:41.258Z,7.60
2023-03-17T19:08:42.752Z,7.50
2023-03-17T19:13:44.198Z,7.40
2023-03-17T19:18:45.655Z,7.30
2023-03-17T19:23:47.077Z,7.20
2023-03-17T19:28:48.511Z,7.10
2023-03-17T19:33:49.992Z,7.10
2023-03-17T19:38:51.433Z,7.10
2023-03-17T19:43:52.897Z,7.00
2023-03-17T19:48:54.390Z,6.90
2023-03-17T19:53:55.856Z,6.90
2023-03-17T19:58:57.331Z,6.90
2023-03-17T20:03:58.856Z,6.80
2023-03-17T20:09:00.348Z,6.70
2023-03-17T20:14:01.824Z,6.60
2023-03-17T20:19:03.287Z,6.60
2023-03-17T20:24:04.740Z,6.50
2023-03-17T20:29:06.200Z,6.50
2023-03-17T20:34:07.649Z,6.50
2023-03-17T20:39:09.172Z,6.50
2023-03-17T20:44:10.653Z,6.40
2023-03-17T20:49:12.133Z,6.20
2023-03-17T20:54:13.597Z,6.10
2023-03-17T20:59:15.066Z,6.20
2023-03-17T21:04:16.525Z,6.20
2023-03-17T21:09:18.125Z,6.30
2023-03-17T21:14:19.946Z,6.30
2023-03-17T21:19:22.058Z,6.30
2023-03-17T21:24:23.529Z,6.30
2023-03-17T21:29:25.196Z,6.30
2023-03-17T21:34:26.657Z,6.20
2023-03-17T21:39:29.628Z,6.10
2023-03-17T21:44:31.525Z,5.90
2023-03-17T21:49:32.959Z,5.70
2023-03-17T21:54:34.392Z,5.70
2023-03-17T21:59:35.858Z,5.70
2023-03-17T22:04:37.302Z,5.70
2023-03-17T22:10:05.503Z,5.70
2023-03-17T22:20:22.641Z,5.50
2023-03-17T22:25:24.081Z,5.50
2023-03-17T22:30:25.533Z,5.50
2023-03-17T22:35:26.964Z,5.50
2023-03-17T22:40:28.381Z,5.50
2023-03-17T22:45:29.836Z,5.50
2023-03-17T22:50:31.474Z,5.50
2023-03-17T22:55:33.005Z,5.50
2023-03-17T23:00:34.431Z,5.50
2023-03-17T23:05:35.899Z,5.60
2023-03-17T23:10:37.353Z,5.70
2023-03-17T23:15:38.783Z,5.70
2023-03-17T23:20:40.212Z,5.90
2023-03-17T23:25:41.635Z,5.90
2023-03-17T23:30:43.090Z,5.90
2023-03-17T23:35:44.656Z,5.80
2023-03-17T23:40:46.167Z,5.60
2023-03-17T23:45:47.599Z,5.50
2023-03-17T23:50:49.078Z,5.40
2023-03-17T23:55:50.576Z,5.20
